Terminal Aerodrome Forecast
Issued by NWS

Home | Current Version | Previous Version | Text Only | Print | Product List | Glossary On
Versions: 1 2 3 4 5 6 7 8 9 10 11 12 13 14 15 16 17
000
FTUS44 KTSA 281120
TAFBVO
TAF
KBVO 281120Z 2812/2912 03007KT P6SM OVC018
     FM281800 08007KT P6SM SCT025
     FM290400 08010KT 6SM -TSRA BKN040CB
      TEMPO 2905/2908 VRB20G35KT 4SM TSRA OVC025CB=

USA.gov is the U.S. government's official web portal to all federal, state and local government web resources and services.